Time;durP1;ratioP1;P1;durP2;ratioP2;P2;SDS_P1;SDS_P2;PMS_P1;PMS_P2;Temp;Humidity;BMP_temperature;BMP_pressure;BME280_temperature;BME280_humidity;BME280_pressure;Samples;Min_cycle;Max_cycle;Signal;HPM_P1;HPM_P2
2022/05/19 00:00:30;;;;;;;4.60;1.73;;;;;;;-143.84;65.90;45117.63;5111893;28;20422;-73
2022/05/19 00:02:57;;;;;;;3.87;2.00;;;;;;;-143.84;66.07;45085.25;5112009;28;20485;-72
2022/05/19 00:05:26;;;;;;;8.77;2.73;;;;;;;-143.84;66.31;45102.38;5112410;28;20435;-73
2022/05/19 00:07:53;;;;;;;4.10;2.03;;;;;;;-143.84;66.46;45092.88;5112562;28;20431;-73
2022/05/19 00:10:20;;;;;;;4.60;1.90;;;;;;;-143.84;66.95;45079.53;5111707;28;20440;-73
2022/05/19 00:12:47;;;;;;;1.97;1.73;;;;;;;-143.84;66.79;45115.72;5112105;28;20469;-73
2022/05/19 00:15:14;;;;;;;3.43;2.73;;;;;;;-143.84;67.55;45108.09;5112427;28;20432;-73
2022/05/19 00:17:43;;;;;;;5.33;1.90;;;;;;;-143.84;67.90;45102.38;5112308;28;20435;-73
2022/05/19 00:20:11;;;;;;;4.70;2.13;;;;;;;-143.84;68.04;45098.56;5112629;28;20531;-73
2022/05/19 00:22:38;;;;;;;5.57;2.23;;;;;;;-143.84;68.28;45087.16;5112136;28;20435;-73
2022/05/19 00:25:06;;;;;;;15.80;2.90;;;;;;;-143.84;68.31;45115.72;5111698;28;20443;-72
2022/05/19 00:27:33;;;;;;;3.50;2.83;;;;;;;-143.84;68.43;45104.28;5111621;28;20496;-72
2022/05/19 00:30:01;;;;;;;4.80;2.20;;;;;;;-143.84;68.79;45144.28;5111344;27;20431;-73
2022/05/19 00:32:29;;;;;;;3.00;2.37;;;;;;;-143.84;69.12;45083.34;5110363;28;20535;-72
2022/05/19 00:34:58;;;;;;;5.13;2.60;;;;;;;-143.84;69.63;45115.72;5111224;28;20440;-72
2022/05/19 00:37:25;;;;;;;3.10;2.80;;;;;;;-143.84;69.83;45087.16;5111624;28;20493;-72
2022/05/19 00:39:52;;;;;;;6.30;2.87;;;;;;;-143.84;69.74;45085.25;5112081;28;20767;-73
2022/05/19 00:45:06;;;;;;;7.53;2.63;;;;;;;-143.84;70.63;45102.38;5111559;28;20426;-73
2022/05/19 00:47:38;;;;;;;3.63;2.40;;;;;;;-143.84;70.42;45106.19;5111759;28;20454;-72
2022/05/19 00:50:11;;;;;;;6.13;3.30;;;;;;;-143.84;70.76;45129.03;5111404;28;21348;-72
2022/05/19 00:52:43;;;;;;;5.67;2.43;;;;;;;-143.84;71.05;45094.78;5109620;28;20482;-73
2022/05/19 00:55:14;;;;;;;17.40;3.10;;;;;;;-143.84;71.25;45092.88;5111532;28;20887;-72
2022/05/19 00:57:46;;;;;;;3.77;2.93;;;;;;;-143.84;71.78;45090.97;5111765;28;20427;-72
2022/05/19 01:00:17;;;;;;;10.70;3.60;;;;;;;-143.84;71.76;45092.88;5111301;28;20430;-72
2022/05/19 01:02:50;;;;;;;4.77;2.80;;;;;;;-143.84;71.88;45090.97;5111242;28;20536;-73
2022/05/19 01:05:23;;;;;;;4.90;3.10;;;;;;;-143.84;72.00;45092.88;5111289;28;20508;-72
2022/05/19 01:07:55;;;;;;;10.03;3.30;;;;;;;-143.84;72.19;45121.44;5093098;28;20463;-73
2022/05/19 01:10:23;;;;;;;2.87;2.67;;;;;;;-143.84;72.26;45100.47;5090762;28;20432;-72
2022/05/19 01:12:52;;;;;;;2.90;2.70;;;;;;;-143.84;72.44;45117.63;5090429;28;20480;-72
2022/05/19 01:15:20;;;;;;;4.10;3.13;;;;;;;-143.84;72.79;45117.63;5091149;28;20424;-72
2022/05/19 01:17:48;;;;;;;14.43;3.83;;;;;;;-143.84;74.90;45096.66;5090661;28;20449;-73
2022/05/19 01:20:21;;;;;;;4.93;3.03;;;;;;;-143.84;75.82;45121.44;5090719;28;20464;-73
2022/05/19 01:22:59;;;;;;;6.03;3.00;;;;;;;-143.84;76.11;45094.78;5091183;28;20447;-72
2022/05/19 01:25:36;;;;;;;3.70;3.13;;;;;;;-143.84;75.69;45110.00;5091056;28;21428;-73
2022/05/19 01:28:05;;;;;;;4.40;2.90;;;;;;;-143.84;76.28;45090.97;5094108;28;20485;-72
2022/05/19 01:30:33;;;;;;;7.67;3.40;;;;;;;-143.84;76.49;45106.19;5094306;28;20440;-72
2022/05/19 01:33:00;;;;;;;10.93;3.23;;;;;;;-143.84;77.03;45090.97;5094473;28;20483;-72
2022/05/19 01:35:32;;;;;;;4.90;3.03;;;;;;;-143.84;76.47;45136.66;5094266;28;20438;-72
2022/05/19 01:38:01;;;;;;;19.80;3.20;;;;;;;-143.84;76.98;45132.84;5094099;28;21093;-72
2022/05/19 01:40:45;;;;;;;6.93;3.63;;;;;;;-143.84;75.68;45110.00;5094145;28;20461;-72
2022/05/19 01:43:26;;;;;;;7.53;3.53;;;;;;;-143.84;74.37;45119.53;5094757;28;20437;-72
2022/05/19 01:46:11;;;;;;;4.90;3.37;;;;;;;-143.84;74.13;45096.66;5094531;28;20449;-72
2022/05/19 01:48:46;;;;;;;6.40;3.50;;;;;;;-143.84;73.95;45127.13;5094212;28;21001;-73
2022/05/19 01:51:18;;;;;;;5.83;3.20;;;;;;;-143.84;74.01;45094.78;5094121;28;20503;-72
2022/05/19 01:53:54;;;;;;;4.43;3.23;;;;;;;-143.84;73.12;45125.22;5093957;28;20492;-73
2022/05/19 01:56:27;;;;;;;5.93;3.33;;;;;;;-143.84;73.57;45155.69;5094096;28;20440;-72
2022/05/19 01:59:07;;;;;;;15.63;4.40;;;;;;;-143.84;76.14;45117.63;5094113;28;20444;-73
2022/05/19 02:01:34;;;;;;;8.97;3.00;;;;;;;-143.84;76.27;45111.91;5093836;28;20471;-73
2022/05/19 02:04:09;;;;;;;10.43;3.20;;;;;;;-143.84;77.33;45125.22;5093835;28;20934;-72
2022/05/19 02:06:41;;;;;;;6.90;3.47;;;;;;;-143.84;77.69;45102.38;5093589;28;20436;-72
2022/05/19 02:09:15;;;;;;;8.20;3.90;;;;;;;-143.84;77.95;45102.38;5092471;28;20441;-72
2022/05/19 02:11:47;;;;;;;8.53;3.90;;;;;;;-143.84;77.89;45104.28;5092381;28;20527;-72
2022/05/19 02:14:21;;;;;;;15.80;3.73;;;;;;;-143.84;78.31;45087.16;5092964;28;20537;-72
2022/05/19 02:16:50;;;;;;;7.83;3.80;;;;;;;-143.84;78.43;45119.53;5092695;28;20437;-72
2022/05/19 02:19:24;;;;;;;6.40;3.60;;;;;;;-143.84;78.65;45110.00;5092116;28;20474;-73
2022/05/19 02:21:52;;;;;;;4.97;3.70;;;;;;;-143.84;78.77;45087.16;5093230;28;20968;-73
2022/05/19 02:24:23;;;;;;;4.50;4.10;;;;;;;-143.84;79.12;45119.53;5093352;28;20432;-73
2022/05/19 02:26:50;;;;;;;13.20;3.37;;;;;;;-143.84;78.85;45104.28;5093835;28;20950;-73
2022/05/19 02:29:23;;;;;;;10.70;3.37;;;;;;;-143.84;77.37;45115.72;5093530;28;20467;-72
2022/05/19 02:31:50;;;;;;;14.00;3.70;;;;;;;-143.84;76.59;45113.81;5093778;28;20859;-72
2022/05/19 02:34:18;;;;;;;15.10;4.30;;;;;;;-143.84;75.85;45108.09;5093115;28;20476;-72
2022/05/19 02:36:45;;;;;;;4.63;3.70;;;;;;;-143.84;75.83;45125.22;5093310;28;20852;-73
2022/05/19 02:39:13;;;;;;;17.73;3.73;;;;;;;-143.84;75.82;45113.81;5092320;28;20440;-73
2022/05/19 02:41:40;;;;;;;5.23;3.60;;;;;;;-143.84;76.06;45102.38;5093057;28;20474;-72
2022/05/19 02:44:08;;;;;;;16.17;3.57;;;;;;;-143.84;75.90;45102.38;5093809;28;20440;-72
2022/05/19 02:46:36;;;;;;;13.93;3.80;;;;;;;-143.84;76.04;45121.44;5093157;28;20442;-72
2022/05/19 02:49:04;;;;;;;7.10;3.80;;;;;;;-143.84;76.10;45129.03;5092765;28;20443;-72
2022/05/19 02:51:31;;;;;;;5.10;4.20;;;;;;;-143.84;79.01;45111.91;5092642;28;20424;-73
2022/05/19 02:53:59;;;;;;;12.30;4.83;;;;;;;-143.84;79.48;45140.47;5092746;28;20476;-73
2022/05/19 02:56:26;;;;;;;6.53;4.30;;;;;;;-143.84;78.99;45110.00;5092566;28;20434;-72
2022/05/19 02:58:53;;;;;;;4.90;3.83;;;;;;;-143.84;77.23;45098.56;5092510;28;20430;-73
2022/05/19 03:01:20;;;;;;;5.70;4.07;;;;;;;-143.84;76.80;45102.38;5092082;28;20581;-72
2022/05/19 03:03:49;;;;;;;6.87;4.30;;;;;;;-143.84;76.46;45102.38;5092119;28;21194;-72
2022/05/19 03:06:16;;;;;;;23.53;4.17;;;;;;;-143.84;78.25;45117.63;5091541;28;20824;-73
2022/05/19 03:08:43;;;;;;;8.90;3.80;;;;;;;-143.84;77.44;45098.56;5091146;28;20438;-72
2022/05/19 03:11:10;;;;;;;6.40;3.93;;;;;;;-143.84;75.77;45102.38;5091435;28;20494;-72
2022/05/19 03:13:37;;;;;;;7.60;3.73;;;;;;;-143.84;76.75;45094.78;5091606;28;21001;-72
2022/05/19 03:16:08;;;;;;;3.03;2.83;;;;;;;-143.84;75.50;45098.56;5092299;28;20900;-72
2022/05/19 03:18:36;;;;;;;6.37;3.37;;;;;;;-143.84;77.49;45075.72;5091986;28;20434;-72
2022/05/19 03:21:04;;;;;;;7.03;3.47;;;;;;;-143.84;78.09;45094.78;5091965;28;20445;-72
2022/05/19 03:23:31;;;;;;;5.57;4.10;;;;;;;-143.84;77.72;45075.72;5091833;28;20455;-72
2022/05/19 03:25:59;;;;;;;5.73;3.70;;;;;;;-143.84;75.99;45106.19;5092001;28;20460;-72
2022/05/19 03:28:28;;;;;;;5.60;3.87;;;;;;;-143.84;74.43;45138.56;5090318;28;20495;-72
2022/05/19 03:30:56;;;;;;;14.37;4.20;;;;;;;-143.84;74.01;45083.34;5090916;28;20457;-72
2022/05/19 03:33:23;;;;;;;14.27;4.13;;;;;;;-143.84;73.41;45089.06;5091657;28;20488;-72
2022/05/19 03:35:57;;;;;;;4.10;3.40;;;;;;;-143.84;73.04;45083.34;5091421;28;20450;-72
2022/05/19 03:38:25;;;;;;;7.37;3.27;;;;;;;-143.84;72.52;45096.66;5091510;28;20437;-73
2022/05/19 03:40:53;;;;;;;14.00;4.00;;;;;;;-143.84;72.19;45098.56;5092013;28;20509;-72
2022/05/19 03:43:21;;;;;;;9.00;2.93;;;;;;;-143.84;72.53;45115.72;5091612;28;21307;-72
2022/05/19 03:45:49;;;;;;;7.03;3.20;;;;;;;-143.84;72.13;45085.25;5092067;28;20499;-73
2022/05/19 03:48:16;;;;;;;6.00;3.50;;;;;;;-143.84;71.40;45098.56;5091103;28;20450;-72
2022/05/19 03:50:45;;;;;;;9.83;3.40;;;;;;;-143.84;71.16;45104.28;5092213;28;20928;-72
2022/05/19 03:53:13;;;;;;;11.73;3.10;;;;;;;-143.84;70.45;45130.94;5092063;28;20472;-72
2022/05/19 03:55:42;;;;;;;4.13;2.60;;;;;;;-143.84;70.31;45127.13;5091444;28;20499;-72
2022/05/19 03:58:09;;;;;;;3.10;2.90;;;;;;;-143.84;70.17;45121.44;5091862;28;20468;-73
2022/05/19 04:00:36;;;;;;;4.60;3.47;;;;;;;-143.84;69.48;45087.16;5091857;28;20898;-73
2022/05/19 04:03:04;;;;;;;4.83;3.73;;;;;;;-143.84;69.62;45098.56;5090363;28;20479;-72
2022/05/19 04:05:31;;;;;;;3.33;3.07;;;;;;;-143.84;69.25;45090.97;5089227;28;20439;-72
2022/05/19 04:07:58;;;;;;;4.53;2.90;;;;;;;-143.84;68.87;45085.25;5089408;28;20436;-72
2022/05/19 04:10:26;;;;;;;4.03;3.10;;;;;;;-143.84;68.19;45140.47;5089183;28;20538;-73
2022/05/19 04:12:54;;;;;;;3.70;3.30;;;;;;;-143.84;67.13;45102.38;5090056;28;20449;-72
2022/05/19 04:15:21;;;;;;;19.60;3.70;;;;;;;-143.84;66.42;45089.06;5089907;28;20962;-73
2022/05/19 04:17:49;;;;;;;4.73;3.27;;;;;;;-143.84;66.19;45079.53;5090695;28;20962;-72
2022/05/19 04:20:16;;;;;;;4.23;3.30;;;;;;;-143.84;64.33;45089.06;5090681;28;20509;-72
2022/05/19 04:22:44;;;;;;;11.37;3.30;;;;;;;-143.84;62.80;45077.63;5091132;28;20434;-72
2022/05/19 04:25:13;;;;;;;8.53;3.30;;;;;;;-143.84;61.81;45090.97;5090776;28;20493;-72
2022/05/19 04:27:40;;;;;;;4.80;3.00;;;;;;;-143.84;61.19;45096.66;5090552;28;20469;-72
2022/05/19 04:30:11;;;;;;;5.97;2.83;;;;;;;-143.84;58.73;45077.63;5090671;28;20467;-73
2022/05/19 04:32:38;;;;;;;7.10;3.23;;;;;;;-143.84;57.65;45075.72;5090933;28;20497;-72
2022/05/19 04:35:06;;;;;;;7.20;2.87;;;;;;;-143.84;55.63;45071.91;5091066;28;21053;-73
2022/05/19 04:37:33;;;;;;;7.00;3.30;;;;;;;-143.84;54.41;45064.31;5090917;28;20443;-72
2022/05/19 04:40:01;;;;;;;7.13;2.83;;;;;;;-143.84;51.91;45075.72;5090670;28;20444;-72
2022/05/19 04:42:29;;;;;;;19.23;3.17;;;;;;;-143.84;50.98;45050.97;5090459;28;20443;-73
2022/05/19 04:44:56;;;;;;;4.50;3.10;;;;;;;-143.84;50.04;45030.03;5090742;28;20502;-73
2022/05/19 04:47:24;;;;;;;5.67;3.10;;;;;;;-143.84;48.89;45083.34;5090100;28;20500;-73
2022/05/19 04:49:52;;;;;;;14.43;3.10;;;;;;;-143.84;48.03;45045.25;5089846;28;20440;-73
2022/05/19 04:52:20;;;;;;;11.90;3.40;;;;;;;-143.84;46.88;45028.13;5090640;28;20450;-73
2022/05/19 04:54:47;;;;;;;7.23;2.63;;;;;;;-143.84;45.64;45066.22;5090169;28;20504;-73
2022/05/19 04:57:14;;;;;;;6.57;2.77;;;;;;;-143.84;44.79;45037.66;5090722;28;20456;-73
2022/05/19 04:59:43;;;;;;;7.27;3.37;;;;;;;-143.84;43.99;45031.94;5090440;28;20440;-73
2022/05/19 05:02:13;;;;;;;7.03;2.67;;;;;;;-143.84;43.90;45045.25;5092550;28;20476;-73
2022/05/19 05:04:41;;;;;;;10.90;2.73;;;;;;;-143.84;42.74;45047.16;5095130;28;20998;-73
2022/05/19 05:07:09;;;;;;;13.33;3.87;;;;;;;-143.84;43.05;45024.31;5094925;28;20440;-73
2022/05/19 05:09:36;;;;;;;2.80;2.40;;;;;;;-143.84;42.45;45033.84;5094778;28;20436;-73
2022/05/19 05:12:04;;;;;;;8.10;2.30;;;;;;;-143.84;41.79;45035.75;5094448;28;20440;-73
2022/05/19 05:14:31;;;;;;;8.53;3.00;;;;;;;-143.84;41.54;45031.94;5094357;28;20480;-73
2022/05/19 05:16:58;;;;;;;11.50;2.47;;;;;;;-143.84;41.65;45028.13;5094802;28;20859;-73
2022/05/19 05:19:26;;;;;;;6.33;2.73;;;;;;;-143.84;41.30;45016.69;5094970;28;20423;-74
2022/05/19 05:21:58;;;;;;;4.63;3.27;;;;;;;-143.84;41.25;45014.78;5094160;28;20431;-74
2022/05/19 05:24:26;;;;;;;32.20;21.27;;;;;;;-143.84;41.12;45007.19;5093714;28;20964;-72
2022/05/19 05:26:53;;;;;;;28.20;16.90;;;;;;;-143.84;39.62;45030.03;5093160;28;20439;-73
2022/05/19 05:29:20;;;;;;;5.30;3.90;;;;;;;-143.84;39.41;45022.41;5094610;28;20435;-76
2022/05/19 05:31:48;;;;;;;66.33;47.60;;;;;;;-143.84;39.26;45022.41;5094226;28;20443;-75
2022/05/19 05:34:15;;;;;;;11.10;9.00;;;;;;;-143.84;38.99;45014.78;5093743;28;20479;-74
2022/05/19 05:36:42;;;;;;;3.33;2.30;;;;;;;-143.84;39.19;45016.69;5093900;28;20529;-74
2022/05/19 05:39:11;;;;;;;2.83;2.07;;;;;;;-143.84;39.19;45012.88;5093894;28;20451;-74
2022/05/19 05:41:38;;;;;;;3.23;2.07;;;;;;;-143.84;38.38;44999.56;5094147;28;20504;-74
2022/05/19 05:44:06;;;;;;;9.77;2.13;;;;;;;-143.84;37.86;45001.47;5093842;28;20932;-74
2022/05/19 05:46:33;;;;;;;10.17;2.80;;;;;;;-143.84;37.38;44993.84;5093885;28;20409;-73
2022/05/19 05:49:00;;;;;;;2.93;2.63;;;;;;;-143.84;37.11;45014.78;5093721;28;20448;-73
2022/05/19 05:51:27;;;;;;;7.30;2.30;;;;;;;-143.84;36.68;45007.19;5092888;28;20432;-73
2022/05/19 05:53:54;;;;;;;11.70;2.13;;;;;;;-143.84;36.90;44991.94;5092869;28;21001;-72
2022/05/19 05:56:24;;;;;;;3.47;2.30;;;;;;;-143.84;36.10;44999.56;5093167;28;20516;-72
2022/05/19 05:58:52;;;;;;;5.47;2.40;;;;;;;-143.84;36.09;45009.09;5093022;28;20448;-72
2022/05/19 06:01:20;;;;;;;7.23;2.57;;;;;;;-143.84;36.53;45022.41;5092555;28;20454;-72
2022/05/19 06:03:49;;;;;;;2.50;2.27;;;;;;;-143.84;35.82;45012.88;5092209;28;20475;-73
2022/05/19 06:06:17;;;;;;;1.97;1.70;;;;;;;-143.84;35.73;44999.56;5092904;28;20451;-73
2022/05/19 06:08:45;;;;;;;6.33;2.30;;;;;;;-143.84;35.63;45005.28;5092616;28;20489;-73
2022/05/19 06:11:13;;;;;;;11.63;2.10;;;;;;;-143.84;35.82;45012.88;5092107;28;20432;-73
2022/05/19 06:13:42;;;;;;;3.97;2.23;;;;;;;-143.84;34.95;44991.94;5092185;28;20492;-73
2022/05/19 06:16:09;;;;;;;2.60;2.40;;;;;;;-143.84;35.90;44991.94;5092816;28;20436;-75
2022/05/19 06:18:37;;;;;;;5.80;2.00;;;;;;;-143.84;36.04;45003.38;5092707;28;20505;-72
2022/05/19 06:21:04;;;;;;;3.40;2.33;;;;;;;-143.84;36.09;45007.19;5102797;27;20500;-75
2022/05/19 06:23:32;;;;;;;2.83;2.57;;;;;;;-143.84;35.65;44997.66;5100244;28;20439;-75
2022/05/19 06:26:00;;;;;;;3.40;2.67;;;;;;;-143.84;35.58;44991.94;5092603;28;20799;-74
2022/05/19 06:28:28;;;;;;;16.03;9.73;;;;;;;-143.84;34.58;44990.03;5115583;28;20512;-73
2022/05/19 06:30:57;;;;;;;7.93;4.63;;;;;;;-143.84;34.89;44980.53;5114758;28;20457;-74
2022/05/19 06:33:24;;;;;;;8.53;2.03;;;;;;;-143.84;33.46;44976.72;5115776;28;20491;-75
2022/05/19 06:35:51;;;;;;;2.73;2.13;;;;;;;-143.84;33.47;44967.19;5115987;28;21040;-72
2022/05/19 06:38:19;;;;;;;2.50;2.13;;;;;;;-143.84;33.75;44972.91;5117349;28;20447;-73
2022/05/19 06:40:46;;;;;;;8.73;2.20;;;;;;;-143.84;34.29;44986.22;5111793;28;20431;-74
2022/05/19 06:43:15;;;;;;;3.43;2.20;;;;;;;-143.84;33.96;44986.22;5112349;28;20897;-73
2022/05/19 06:45:44;;;;;;;31.27;23.13;;;;;;;-143.84;34.87;44972.91;5114172;28;20501;-74
2022/05/19 06:48:13;;;;;;;5.67;2.10;;;;;;;-143.84;33.64;44999.56;5093454;28;20880;-74
2022/05/19 06:50:40;;;;;;;2.77;2.20;;;;;;;-143.84;34.00;44990.03;5092240;28;20451;-74
2022/05/19 06:53:07;;;;;;;1.70;1.57;;;;;;;-143.84;33.85;44997.66;5091449;28;20436;-72
2022/05/19 06:55:37;;;;;;;2.43;2.10;;;;;;;-143.84;34.37;44982.41;5090898;28;20607;-73
2022/05/19 06:58:06;;;;;;;5.13;2.00;;;;;;;-143.84;34.14;44978.63;5090914;28;20522;-73
2022/05/19 07:00:34;;;;;;;3.87;2.30;;;;;;;-143.84;33.52;44965.28;5091096;28;20524;-73
2022/05/19 07:03:02;;;;;;;5.40;2.00;;;;;;;-143.84;33.79;44988.13;5090783;28;20565;-73
2022/05/19 07:05:35;;;;;;;2.90;2.40;;;;;;;-143.84;33.55;44990.03;5091049;28;20447;-73
2022/05/19 07:08:02;;;;;;;4.17;1.80;;;;;;;-143.84;33.63;44991.94;5090960;28;20455;-73
2022/05/19 07:10:29;;;;;;;2.40;2.17;;;;;;;-143.84;33.70;44984.31;5091086;28;20969;-74
2022/05/19 07:12:56;;;;;;;4.07;2.10;;;;;;;-143.84;34.11;44982.41;5090595;28;20444;-73
2022/05/19 07:15:24;;;;;;;4.90;2.47;;;;;;;-143.84;33.77;45020.50;5090904;28;20532;-73
2022/05/19 07:17:51;;;;;;;5.87;2.03;;;;;;;-143.84;34.31;45022.41;5090717;28;20448;-74
2022/05/19 07:23:06;;;;;;;4.00;2.27;;;;;;;-143.84;34.81;44999.56;5090172;28;20423;-73
2022/05/19 07:25:33;;;;;;;3.93;2.00;;;;;;;-143.84;35.45;45016.69;5089800;28;20447;-74
2022/05/19 07:28:01;;;;;;;4.23;2.37;;;;;;;-143.84;35.81;45014.78;5090393;28;20436;-73
2022/05/19 07:30:28;;;;;;;2.93;2.20;;;;;;;-143.84;36.23;45022.41;5090185;28;20432;-73
2022/05/19 07:32:55;;;;;;;3.73;2.23;;;;;;;-143.84;36.71;45014.78;5089932;28;20443;-74
2022/05/19 07:35:24;;;;;;;4.70;2.17;;;;;;;-143.84;35.59;44995.75;5089820;28;21047;-74
2022/05/19 07:37:51;;;;;;;4.00;2.20;;;;;;;-143.84;35.79;45007.19;5090041;28;20551;-74
2022/05/19 07:40:24;;;;;;;7.87;4.67;;;;;;;-143.84;35.46;44980.53;5091768;28;20436;-72
2022/05/19 07:42:51;;;;;;;8.43;7.63;;;;;;;-143.84;34.50;44974.81;5093774;28;20451;-73
2022/05/19 07:45:19;;;;;;;3.60;3.40;;;;;;;-143.84;35.14;44991.94;5092052;28;20440;-73
2022/05/19 07:47:46;;;;;;;3.60;2.20;;;;;;;-143.84;34.43;44999.56;5090472;28;20440;-73
2022/05/19 07:50:13;;;;;;;3.30;2.47;;;;;;;-143.84;34.85;45014.78;5090500;28;20468;-74
2022/05/19 07:52:41;;;;;;;5.00;1.70;;;;;;;-143.84;34.24;44972.91;5090265;28;20471;-73
2022/05/19 07:55:09;;;;;;;3.87;2.13;;;;;;;-143.84;34.65;45007.19;5090108;28;20490;-73
2022/05/19 07:57:38;;;;;;;6.50;2.13;;;;;;;-143.84;33.35;45014.78;5090161;28;20805;-73
2022/05/19 08:00:07;;;;;;;1.67;1.57;;;;;;;-143.84;34.26;44986.22;5090205;28;20450;-73
2022/05/19 08:02:35;;;;;;;4.90;1.83;;;;;;;-143.84;34.54;44995.75;5090014;28;20884;-73
2022/05/19 08:05:05;;;;;;;9.20;2.53;;;;;;;-143.84;33.80;44995.75;5089979;28;20432;-73
2022/05/19 08:07:32;;;;;;;4.90;2.60;;;;;;;-143.84;34.82;44999.56;5090375;28;20439;-73
2022/05/19 08:15:38;;;;;;;2.57;2.00;;;;;;;-143.84;34.33;44965.28;5091313;28;20475;-73
2022/05/19 08:18:10;;;;;;;22.87;17.97;;;;;;;-143.84;34.28;44990.03;5091258;28;20450;-73
2022/05/19 08:20:40;;;;;;;3.10;2.07;;;;;;;-143.84;34.85;44984.31;5089487;28;20820;-73
2022/05/19 08:23:08;;;;;;;2.90;2.20;;;;;;;-143.84;35.88;45031.94;5089280;28;20938;-73
2022/05/19 08:25:36;;;;;;;2.30;1.97;;;;;;;-143.84;33.75;44995.75;5089441;28;20509;-73
2022/05/19 08:28:05;;;;;;;4.80;2.30;;;;;;;-143.84;34.40;44986.22;5089625;28;20501;-73
2022/05/19 08:30:32;;;;;;;4.87;2.10;;;;;;;-143.84;34.75;44988.13;5089510;28;20451;-73
2022/05/19 08:32:59;;;;;;;8.20;2.20;;;;;;;-143.84;35.07;45005.28;5089422;28;20493;-73
2022/05/19 08:35:26;;;;;;;6.90;2.00;;;;;;;-143.84;35.40;44982.41;5088867;28;20475;-72
2022/05/19 08:37:53;;;;;;;7.33;2.30;;;;;;;-143.84;34.30;44984.31;5088723;28;20431;-72
2022/05/19 08:40:21;;;;;;;7.40;1.60;;;;;;;-143.84;34.96;44980.53;5089525;28;21126;-72
2022/05/19 08:42:52;;;;;;;4.00;2.00;;;;;;;-143.84;34.60;44972.91;5089676;28;20786;-72
2022/05/19 08:45:29;;;;;;;9.53;2.13;;;;;;;-143.84;34.82;45009.09;5089149;28;20992;-73
2022/05/19 08:48:03;;;;;;;1.60;1.50;;;;;;;-143.84;34.57;44995.75;5089424;28;20820;-72
2022/05/19 08:50:38;;;;;;;2.37;1.80;;;;;;;-143.84;34.71;44982.41;5089274;28;20431;-72
2022/05/19 08:53:06;;;;;;;94.33;64.80;;;;;;;-143.84;33.94;44993.84;5090658;28;21279;-74
2022/05/19 08:55:34;;;;;;;2.67;2.47;;;;;;;-143.84;34.74;45001.47;5089521;28;20472;-73
2022/05/19 08:58:14;;;;;;;13.37;2.73;;;;;;;-143.84;35.85;45022.41;5089939;28;20430;-74
2022/05/19 09:00:47;;;;;;;3.37;2.07;;;;;;;-143.84;35.98;45003.38;5102904;28;20885;-73
2022/05/19 09:03:23;;;;;;;5.00;2.03;;;;;;;-143.84;35.45;44971.00;5097283;28;20610;-73
2022/05/19 09:06:20;;;;;;;3.60;1.77;;;;;;;-143.84;36.13;44990.03;5104499;28;20788;-74
2022/05/19 09:09:06;;;;;;;2.17;1.80;;;;;;;-143.84;34.84;44988.13;5104149;28;20451;-74
2022/05/19 09:11:40;;;;;;;2.80;2.60;;;;;;;-143.84;34.71;44976.72;5103242;28;20446;-72
2022/05/19 09:14:17;;;;;;;2.23;2.03;;;;;;;-143.84;35.40;45003.38;5101604;28;20450;-72
2022/05/19 09:16:45;;;;;;;4.43;1.80;;;;;;;-143.84;35.12;44984.31;5106153;28;20482;-73
2022/05/19 09:19:18;;;;;;;13.40;2.10;;;;;;;-143.84;35.04;44980.53;5100329;28;20459;-72
2022/05/19 09:21:47;;;;;;;1.40;1.30;;;;;;;-143.84;35.40;44972.91;5108055;28;20511;-73
2022/05/19 09:24:14;;;;;;;2.80;1.50;;;;;;;-143.84;34.85;44982.41;5107779;28;20557;-72
2022/05/19 09:26:52;;;;;;;1.90;1.80;;;;;;;-143.84;33.53;45005.28;5107411;28;20443;-73
2022/05/19 09:29:22;;;;;;;4.80;1.80;;;;;;;-143.84;35.10;44991.94;5103291;28;20458;-72
2022/05/19 09:31:52;;;;;;;4.00;1.97;;;;;;;-143.84;33.25;44988.13;5107380;28;20443;-72
2022/05/19 09:34:24;;;;;;;4.27;1.80;;;;;;;-143.84;34.79;44969.09;5107815;28;20455;-72
2022/05/19 09:37:01;;;;;;;2.60;1.73;;;;;;;-143.84;34.24;44984.31;5096572;28;21122;-79
2022/05/19 09:39:35;;;;;;;4.47;1.80;;;;;;;-143.84;33.80;44971.00;5101723;28;20455;-79
2022/05/19 09:42:08;;;;;;;2.30;2.10;;;;;;;-143.84;33.34;44993.84;5095489;28;20449;-79
2022/05/19 09:44:43;;;;;;;2.10;2.00;;;;;;;-143.84;35.16;45001.47;5109499;28;20443;-79
2022/05/19 09:47:24;;;;;;;4.73;2.30;;;;;;;-143.84;34.59;44953.88;5106233;28;20446;-78
2022/05/19 09:49:56;;;;;;;5.33;1.73;;;;;;;-143.84;34.32;44984.31;5105841;28;21133;-79
2022/05/19 09:52:27;;;;;;;2.50;2.10;;;;;;;-143.84;34.15;44982.41;5103726;28;20455;-77
2022/05/19 09:55:02;;;;;;;2.60;1.63;;;;;;;-143.84;33.63;44988.13;5097849;28;20476;-78
2022/05/19 09:57:38;;;;;;;103.63;76.23;;;;;;;-143.84;35.03;44971.00;5098838;28;20446;-77
2022/05/19 10:00:11;;;;;;;6.10;2.00;;;;;;;-143.84;34.17;44984.31;5097267;28;20929;-78
2022/05/19 10:02:46;;;;;;;2.10;1.90;;;;;;;-143.84;35.14;44997.66;5098211;28;20483;-77
2022/05/19 10:05:25;;;;;;;3.60;2.00;;;;;;;-143.84;34.57;44988.13;5096216;28;20463;-77
2022/05/19 10:07:57;;;;;;;3.10;1.90;;;;;;;-143.84;33.22;44972.91;5096934;28;20454;-77
2022/05/19 10:10:28;;;;;;;4.13;1.63;;;;;;;-143.84;34.58;44993.84;5097909;28;21184;-77
2022/05/19 10:12:57;;;;;;;1.63;1.53;;;;;;;-143.84;35.00;44951.97;5098104;28;20442;-77
2022/05/19 10:15:30;;;;;;;1.90;1.63;;;;;;;-143.84;34.01;44974.81;5094128;28;20574;-77
2022/05/19 10:18:10;;;;;;;5.20;2.20;;;;;;;-143.84;35.16;44991.94;5093934;28;20436;-77
2022/05/19 10:20:45;;;;;;;5.60;2.20;;;;;;;-143.84;35.42;44993.84;5094458;28;20540;-77
2022/05/19 10:23:34;;;;;;;2.27;1.90;;;;;;;-143.84;35.27;45003.38;5095756;28;20461;-77
2022/05/19 10:26:27;;;;;;;2.43;2.00;;;;;;;-143.84;33.27;44976.72;5094224;28;20462;-76
2022/05/19 10:32:07;;;;;;;28.80;20.67;;;;;;;-143.84;35.97;45010.97;5102206;28;20438;-77
2022/05/19 10:34:51;;;;;;;2.73;2.27;;;;;;;-143.84;34.65;44988.13;5098906;28;20535;-78
2022/05/19 10:37:28;;;;;;;2.57;1.97;;;;;;;-143.84;34.59;44976.72;5095604;28;20965;-77
2022/05/19 10:40:29;;;;;;;2.17;1.80;;;;;;;-143.84;35.17;44953.88;5093697;28;20527;-77
2022/05/19 10:43:05;;;;;;;2.10;2.00;;;;;;;-143.84;35.04;44990.03;5089249;28;20980;-76
2022/05/19 10:45:35;;;;;;;3.40;1.77;;;;;;;-143.84;35.56;44995.75;5091997;28;20994;-77
2022/05/19 10:48:41;;;;;;;2.23;1.77;;;;;;;-143.84;35.24;44957.66;5091867;28;20526;-77
2022/05/19 10:51:14;;;;;;;3.03;2.30;;;;;;;-143.84;34.72;44995.75;5095343;28;20446;-76
2022/05/19 10:54:02;;;;;;;2.27;1.80;;;;;;;-143.84;34.31;44982.41;5095913;28;20466;-77
2022/05/19 10:57:02;;;;;;;3.73;2.10;;;;;;;-143.84;33.96;44995.75;5095435;28;20546;-77
2022/05/19 10:59:45;;;;;;;6.70;2.00;;;;;;;-143.84;34.52;44988.13;5061195;28;20447;-77
2022/05/19 11:02:42;;;;;;;5.70;2.17;;;;;;;-143.84;34.46;45007.19;5093461;28;20559;-77
2022/05/19 11:05:34;;;;;;;8.03;2.20;;;;;;;-143.84;34.43;44982.41;5090422;28;20902;-77
2022/05/19 11:08:13;;;;;;;8.63;1.77;;;;;;;-143.84;34.81;44984.31;5096431;28;20534;-77
2022/05/19 11:10:46;;;;;;;4.30;1.93;;;;;;;-143.84;34.51;44980.53;5094225;28;21856;-77
2022/05/19 11:13:27;;;;;;;3.93;1.73;;;;;;;-143.84;34.96;44986.22;5093711;28;20450;-76
2022/05/19 11:16:06;;;;;;;1.80;1.70;;;;;;;-143.84;35.88;44986.22;5096329;28;20470;-77
2022/05/19 11:18:36;;;;;;;6.30;1.90;;;;;;;-143.84;35.65;44963.38;5096506;28;20435;-77
2022/05/19 11:21:08;;;;;;;2.50;1.60;;;;;;;-143.84;34.54;44995.75;5094971;28;20594;-77
2022/05/19 11:23:47;;;;;;;3.77;2.17;;;;;;;-143.84;34.70;44982.41;5094837;28;20486;-74
2022/05/19 11:26:24;;;;;;;2.17;1.63;;;;;;;-143.84;34.94;44980.53;5093808;28;20505;-77
2022/05/19 11:29:12;;;;;;;7.83;2.00;;;;;;;-143.84;35.09;44995.75;5091189;28;20516;-77
2022/05/19 11:31:46;;;;;;;5.27;1.97;;;;;;;-143.84;35.28;44961.47;5105705;28;20446;-77
2022/05/19 11:34:21;;;;;;;4.17;1.93;;;;;;;-143.84;36.77;44974.81;5111672;28;20492;-77
2022/05/19 11:36:57;;;;;;;5.83;1.73;;;;;;;-143.84;34.34;44986.22;5111165;28;21018;-77
2022/05/19 11:39:32;;;;;;;3.00;1.97;;;;;;;-143.84;35.05;45003.38;5112336;28;20435;-77
2022/05/19 11:42:09;;;;;;;4.23;1.40;;;;;;;-143.84;34.74;44986.22;5111923;28;21415;-77
2022/05/19 11:44:38;;;;;;;8.07;1.97;;;;;;;-143.84;35.26;44999.56;5108332;28;21004;-76